sensor_id;sensor_type;location;lat;lon;timestamp;P1;durP1;ratioP1;P2;durP2;ratioP2
20322;SDS011;10319;52.206;20.996;2023-02-15T00:01:20;32.73;;;16.47;;
20322;SDS011;10319;52.206;20.996;2023-02-15T00:03:47;34.40;;;17.57;;
20322;SDS011;10319;52.206;20.996;2023-02-15T00:06:12;31.83;;;14.77;;
20322;SDS011;10319;52.206;20.996;2023-02-15T00:08:38;32.70;;;15.83;;
20322;SDS011;10319;52.206;20.996;2023-02-15T00:11:10;30.73;;;14.90;;
20322;SDS011;10319;52.206;20.996;2023-02-15T00:13:35;32.73;;;15.70;;
20322;SDS011;10319;52.206;20.996;2023-02-15T00:16:05;37.87;;;18.00;;
20322;SDS011;10319;52.206;20.996;2023-02-15T00:18:30;30.67;;;14.97;;
20322;SDS011;10319;52.206;20.996;2023-02-15T00:20:56;36.33;;;17.77;;
20322;SDS011;10319;52.206;20.996;2023-02-15T00:23:21;32.60;;;15.70;;
20322;SDS011;10319;52.206;20.996;2023-02-15T00:25:46;33.30;;;16.70;;
20322;SDS011;10319;52.206;20.996;2023-02-15T00:28:12;31.47;;;15.83;;
20322;SDS011;10319;52.206;20.996;2023-02-15T00:30:42;30.50;;;15.70;;
20322;SDS011;10319;52.206;20.996;2023-02-15T00:33:07;36.57;;;17.27;;
20322;SDS011;10319;52.206;20.996;2023-02-15T00:35:32;39.47;;;19.03;;
20322;SDS011;10319;52.206;20.996;2023-02-15T00:37:57;34.27;;;16.93;;
20322;SDS011;10319;52.206;20.996;2023-02-15T00:40:23;32.93;;;14.77;;
20322;SDS011;10319;52.206;20.996;2023-02-15T00:42:48;30.73;;;15.50;;
20322;SDS011;10319;52.206;20.996;2023-02-15T00:45:13;32.70;;;14.73;;
20322;SDS011;10319;52.206;20.996;2023-02-15T00:47:41;29.90;;;13.53;;
20322;SDS011;10319;52.206;20.996;2023-02-15T00:50:06;32.83;;;15.37;;
20322;SDS011;10319;52.206;20.996;2023-02-15T00:52:31;34.43;;;17.73;;
20322;SDS011;10319;52.206;20.996;2023-02-15T00:54:56;32.60;;;15.07;;
20322;SDS011;10319;52.206;20.996;2023-02-15T00:57:22;29.40;;;14.10;;
20322;SDS011;10319;52.206;20.996;2023-02-15T00:59:47;31.70;;;15.33;;
20322;SDS011;10319;52.206;20.996;2023-02-15T01:02:12;36.47;;;17.57;;
20322;SDS011;10319;52.206;20.996;2023-02-15T01:04:37;34.13;;;15.37;;
20322;SDS011;10319;52.206;20.996;2023-02-15T01:07:03;35.33;;;15.87;;
20322;SDS011;10319;52.206;20.996;2023-02-15T01:09:28;39.07;;;17.57;;
20322;SDS011;10319;52.206;20.996;2023-02-15T01:11:56;37.23;;;18.10;;
20322;SDS011;10319;52.206;20.996;2023-02-15T01:14:22;34.57;;;16.43;;
20322;SDS011;10319;52.206;20.996;2023-02-15T01:16:47;33.23;;;14.97;;
20322;SDS011;10319;52.206;20.996;2023-02-15T01:19:12;36.37;;;16.67;;
20322;SDS011;10319;52.206;20.996;2023-02-15T01:21:38;35.10;;;16.97;;
20322;SDS011;10319;52.206;20.996;2023-02-15T01:24:10;39.70;;;19.17;;
20322;SDS011;10319;52.206;20.996;2023-02-15T01:26:35;35.47;;;17.60;;
20322;SDS011;10319;52.206;20.996;2023-02-15T01:29:00;40.60;;;20.40;;
20322;SDS011;10319;52.206;20.996;2023-02-15T01:31:25;39.33;;;19.07;;
20322;SDS011;10319;52.206;20.996;2023-02-15T01:33:51;35.67;;;16.57;;
20322;SDS011;10319;52.206;20.996;2023-02-15T01:36:16;34.80;;;17.63;;
20322;SDS011;10319;52.206;20.996;2023-02-15T01:38:42;36.63;;;17.83;;
20322;SDS011;10319;52.206;20.996;2023-02-15T01:41:07;38.27;;;18.27;;
20322;SDS011;10319;52.206;20.996;2023-02-15T01:43:49;36.80;;;17.90;;
20322;SDS011;10319;52.206;20.996;2023-02-15T01:46:16;40.87;;;19.80;;
20322;SDS011;10319;52.206;20.996;2023-02-15T01:48:50;39.90;;;20.20;;
20322;SDS011;10319;52.206;20.996;2023-02-15T01:51:17;35.10;;;17.13;;
20322;SDS011;10319;52.206;20.996;2023-02-15T01:53:46;36.73;;;17.57;;
20322;SDS011;10319;52.206;20.996;2023-02-15T01:56:20;34.80;;;17.00;;
20322;SDS011;10319;52.206;20.996;2023-02-15T01:58:47;41.83;;;19.17;;
20322;SDS011;10319;52.206;20.996;2023-02-15T02:01:12;37.93;;;18.93;;
20322;SDS011;10319;52.206;20.996;2023-02-15T02:06:38;30.90;;;14.53;;
20322;SDS011;10319;52.206;20.996;2023-02-15T02:09:04;34.50;;;16.53;;
20322;SDS011;10319;52.206;20.996;2023-02-15T02:11:29;32.40;;;15.53;;
20322;SDS011;10319;52.206;20.996;2023-02-15T02:13:54;32.70;;;14.80;;
20322;SDS011;10319;52.206;20.996;2023-02-15T02:24:16;30.23;;;14.97;;
20322;SDS011;10319;52.206;20.996;2023-02-15T02:27:46;36.10;;;16.67;;
20322;SDS011;10319;52.206;20.996;2023-02-15T02:37:36;28.63;;;14.30;;
20322;SDS011;10319;52.206;20.996;2023-02-15T02:40:13;31.50;;;14.40;;
20322;SDS011;10319;52.206;20.996;2023-02-15T02:42:40;34.13;;;16.80;;
20322;SDS011;10319;52.206;20.996;2023-02-15T02:45:13;33.17;;;14.97;;
20322;SDS011;10319;52.206;20.996;2023-02-15T02:47:44;32.07;;;14.83;;
20322;SDS011;10319;52.206;20.996;2023-02-15T02:50:15;35.57;;;16.47;;
20322;SDS011;10319;52.206;20.996;2023-02-15T02:55:16;46.40;;;20.97;;
20322;SDS011;10319;52.206;20.996;2023-02-15T02:57:46;37.83;;;19.17;;
20322;SDS011;10319;52.206;20.996;2023-02-15T03:00:13;38.33;;;18.57;;
20322;SDS011;10319;52.206;20.996;2023-02-15T03:02:41;37.40;;;18.33;;
20322;SDS011;10319;52.206;20.996;2023-02-15T03:05:08;42.60;;;20.00;;
20322;SDS011;10319;52.206;20.996;2023-02-15T03:07:36;38.13;;;17.97;;
20322;SDS011;10319;52.206;20.996;2023-02-15T03:10:02;40.00;;;17.20;;
20322;SDS011;10319;52.206;20.996;2023-02-15T03:12:29;29.57;;;13.50;;
20322;SDS011;10319;52.206;20.996;2023-02-15T03:15:11;36.00;;;17.10;;
20322;SDS011;10319;52.206;20.996;2023-02-15T03:17:43;36.27;;;17.30;;
20322;SDS011;10319;52.206;20.996;2023-02-15T03:20:31;37.80;;;17.53;;
20322;SDS011;10319;52.206;20.996;2023-02-15T03:23:16;41.13;;;18.73;;
20322;SDS011;10319;52.206;20.996;2023-02-15T03:25:43;38.10;;;17.43;;
20322;SDS011;10319;52.206;20.996;2023-02-15T03:28:10;42.23;;;19.27;;
20322;SDS011;10319;52.206;20.996;2023-02-15T03:30:36;28.27;;;12.00;;
20322;SDS011;10319;52.206;20.996;2023-02-15T03:33:03;27.63;;;12.50;;
20322;SDS011;10319;52.206;20.996;2023-02-15T03:35:33;30.57;;;14.70;;
20322;SDS011;10319;52.206;20.996;2023-02-15T03:37:59;35.13;;;15.37;;
20322;SDS011;10319;52.206;20.996;2023-02-15T03:40:31;35.80;;;15.50;;
20322;SDS011;10319;52.206;20.996;2023-02-15T03:45:52;30.53;;;13.63;;
20322;SDS011;10319;52.206;20.996;2023-02-15T03:48:28;30.50;;;14.33;;
20322;SDS011;10319;52.206;20.996;2023-02-15T03:50:55;27.93;;;11.53;;
20322;SDS011;10319;52.206;20.996;2023-02-15T03:53:41;28.37;;;12.30;;
20322;SDS011;10319;52.206;20.996;2023-02-15T03:56:07;24.17;;;11.10;;
20322;SDS011;10319;52.206;20.996;2023-02-15T03:58:32;32.43;;;14.13;;
20322;SDS011;10319;52.206;20.996;2023-02-15T04:04:17;24.93;;;10.53;;
20322;SDS011;10319;52.206;20.996;2023-02-15T04:06:43;26.73;;;11.23;;
20322;SDS011;10319;52.206;20.996;2023-02-15T04:09:08;25.07;;;11.47;;
20322;SDS011;10319;52.206;20.996;2023-02-15T04:11:52;27.53;;;12.40;;
20322;SDS011;10319;52.206;20.996;2023-02-15T04:14:17;25.30;;;10.20;;
20322;SDS011;10319;52.206;20.996;2023-02-15T04:17:02;22.00;;;9.43;;
20322;SDS011;10319;52.206;20.996;2023-02-15T04:19:29;25.90;;;10.70;;
20322;SDS011;10319;52.206;20.996;2023-02-15T04:22:13;25.20;;;9.67;;
20322;SDS011;10319;52.206;20.996;2023-02-15T04:24:57;26.57;;;10.90;;
20322;SDS011;10319;52.206;20.996;2023-02-15T04:27:39;30.60;;;12.67;;
20322;SDS011;10319;52.206;20.996;2023-02-15T04:30:04;25.90;;;12.70;;
20322;SDS011;10319;52.206;20.996;2023-02-15T04:32:30;26.83;;;11.20;;
20322;SDS011;10319;52.206;20.996;2023-02-15T04:34:55;26.07;;;10.83;;
20322;SDS011;10319;52.206;20.996;2023-02-15T04:37:20;26.07;;;12.13;;
20322;SDS011;10319;52.206;20.996;2023-02-15T04:39:45;26.00;;;11.23;;
20322;SDS011;10319;52.206;20.996;2023-02-15T04:42:11;25.20;;;11.90;;
20322;SDS011;10319;52.206;20.996;2023-02-15T04:44:36;25.73;;;11.77;;
20322;SDS011;10319;52.206;20.996;2023-02-15T04:47:01;26.13;;;11.77;;
20322;SDS011;10319;52.206;20.996;2023-02-15T04:49:26;21.73;;;9.40;;
20322;SDS011;10319;52.206;20.996;2023-02-15T04:51:52;24.73;;;10.23;;
20322;SDS011;10319;52.206;20.996;2023-02-15T04:54:17;27.70;;;12.50;;
20322;SDS011;10319;52.206;20.996;2023-02-15T04:56:42;28.50;;;12.30;;
20322;SDS011;10319;52.206;20.996;2023-02-15T04:59:09;25.83;;;11.90;;
20322;SDS011;10319;52.206;20.996;2023-02-15T05:01:35;23.27;;;10.13;;
20322;SDS011;10319;52.206;20.996;2023-02-15T05:04:00;25.67;;;11.10;;
20322;SDS011;10319;52.206;20.996;2023-02-15T05:06:25;28.03;;;12.47;;
20322;SDS011;10319;52.206;20.996;2023-02-15T05:08:50;26.87;;;12.00;;
20322;SDS011;10319;52.206;20.996;2023-02-15T05:11:16;28.60;;;12.07;;
20322;SDS011;10319;52.206;20.996;2023-02-15T05:13:41;24.97;;;10.70;;
20322;SDS011;10319;52.206;20.996;2023-02-15T05:16:06;26.93;;;12.13;;
20322;SDS011;10319;52.206;20.996;2023-02-15T05:18:31;30.43;;;13.60;;
20322;SDS011;10319;52.206;20.996;2023-02-15T05:20:57;28.73;;;13.07;;
20322;SDS011;10319;52.206;20.996;2023-02-15T05:23:22;27.97;;;12.80;;
20322;SDS011;10319;52.206;20.996;2023-02-15T05:25:48;31.00;;;12.87;;
20322;SDS011;10319;52.206;20.996;2023-02-15T05:28:32;28.77;;;12.70;;
20322;SDS011;10319;52.206;20.996;2023-02-15T05:31:01;27.00;;;12.30;;
20322;SDS011;10319;52.206;20.996;2023-02-15T05:33:27;28.47;;;12.70;;
20322;SDS011;10319;52.206;20.996;2023-02-15T05:35:52;29.90;;;12.83;;
20322;SDS011;10319;52.206;20.996;2023-02-15T05:38:17;30.13;;;13.77;;
20322;SDS011;10319;52.206;20.996;2023-02-15T05:40:42;29.57;;;13.47;;
20322;SDS011;10319;52.206;20.996;2023-02-15T05:43:08;29.30;;;13.37;;
20322;SDS011;10319;52.206;20.996;2023-02-15T05:45:33;28.47;;;13.67;;
20322;SDS011;10319;52.206;20.996;2023-02-15T05:47:58;30.37;;;13.73;;
20322;SDS011;10319;52.206;20.996;2023-02-15T05:50:24;29.60;;;13.70;;
20322;SDS011;10319;52.206;20.996;2023-02-15T05:52:49;28.77;;;14.33;;
20322;SDS011;10319;52.206;20.996;2023-02-15T05:55:14;30.60;;;14.20;;
20322;SDS011;10319;52.206;20.996;2023-02-15T05:57:40;32.33;;;13.83;;
20322;SDS011;10319;52.206;20.996;2023-02-15T06:00:05;26.40;;;12.00;;
20322;SDS011;10319;52.206;20.996;2023-02-15T06:02:34;27.33;;;12.40;;
20322;SDS011;10319;52.206;20.996;2023-02-15T06:04:59;24.60;;;11.03;;
20322;SDS011;10319;52.206;20.996;2023-02-15T06:07:25;24.67;;;10.57;;
20322;SDS011;10319;52.206;20.996;2023-02-15T06:09:50;27.87;;;11.17;;
20322;SDS011;10319;52.206;20.996;2023-02-15T06:12:15;29.50;;;12.83;;
20322;SDS011;10319;52.206;20.996;2023-02-15T06:14:40;25.70;;;11.47;;
20322;SDS011;10319;52.206;20.996;2023-02-15T06:17:07;27.37;;;12.27;;
20322;SDS011;10319;52.206;20.996;2023-02-15T06:19:32;27.27;;;11.40;;
20322;SDS011;10319;52.206;20.996;2023-02-15T06:21:58;27.73;;;12.90;;
20322;SDS011;10319;52.206;20.996;2023-02-15T06:24:23;30.53;;;13.70;;
20322;SDS011;10319;52.206;20.996;2023-02-15T06:26:51;27.53;;;12.70;;
20322;SDS011;10319;52.206;20.996;2023-02-15T06:29:16;27.77;;;13.23;;
20322;SDS011;10319;52.206;20.996;2023-02-15T06:31:41;26.87;;;12.43;;
20322;SDS011;10319;52.206;20.996;2023-02-15T06:34:07;27.70;;;12.83;;
20322;SDS011;10319;52.206;20.996;2023-02-15T06:36:32;29.80;;;13.63;;
20322;SDS011;10319;52.206;20.996;2023-02-15T06:38:58;29.03;;;13.03;;
20322;SDS011;10319;52.206;20.996;2023-02-15T06:41:23;27.33;;;13.60;;
20322;SDS011;10319;52.206;20.996;2023-02-15T06:43:49;31.10;;;13.67;;
20322;SDS011;10319;52.206;20.996;2023-02-15T06:46:14;29.63;;;12.83;;
20322;SDS011;10319;52.206;20.996;2023-02-15T06:48:39;25.90;;;11.27;;
20322;SDS011;10319;52.206;20.996;2023-02-15T06:51:05;28.33;;;11.57;;
20322;SDS011;10319;52.206;20.996;2023-02-15T06:53:30;23.43;;;10.80;;
20322;SDS011;10319;52.206;20.996;2023-02-15T06:56:06;22.97;;;9.97;;
20322;SDS011;10319;52.206;20.996;2023-02-15T06:58:34;22.23;;;9.60;;
20322;SDS011;10319;52.206;20.996;2023-02-15T07:00:59;24.43;;;10.10;;
20322;SDS011;10319;52.206;20.996;2023-02-15T07:03:27;29.47;;;12.97;;
20322;SDS011;10319;52.206;20.996;2023-02-15T07:05:56;28.90;;;13.37;;
20322;SDS011;10319;52.206;20.996;2023-02-15T07:08:24;31.30;;;14.33;;
20322;SDS011;10319;52.206;20.996;2023-02-15T07:10:50;32.60;;;14.77;;
20322;SDS011;10319;52.206;20.996;2023-02-15T07:13:16;30.30;;;13.83;;
20322;SDS011;10319;52.206;20.996;2023-02-15T07:15:41;27.50;;;12.30;;
20322;SDS011;10319;52.206;20.996;2023-02-15T07:18:07;31.27;;;13.70;;
20322;SDS011;10319;52.206;20.996;2023-02-15T07:20:35;32.80;;;14.20;;
20322;SDS011;10319;52.206;20.996;2023-02-15T07:23:08;31.00;;;13.20;;
20322;SDS011;10319;52.206;20.996;2023-02-15T07:25:33;35.67;;;13.57;;
20322;SDS011;10319;52.206;20.996;2023-02-15T07:28:01;30.07;;;14.20;;
20322;SDS011;10319;52.206;20.996;2023-02-15T07:30:34;32.03;;;14.20;;
20322;SDS011;10319;52.206;20.996;2023-02-15T07:33:09;32.23;;;13.10;;
20322;SDS011;10319;52.206;20.996;2023-02-15T07:35:54;29.87;;;13.87;;
20322;SDS011;10319;52.206;20.996;2023-02-15T07:38:19;28.23;;;12.43;;
20322;SDS011;10319;52.206;20.996;2023-02-15T07:40:45;28.17;;;12.10;;
20322;SDS011;10319;52.206;20.996;2023-02-15T07:43:10;29.80;;;13.73;;
20322;SDS011;10319;52.206;20.996;2023-02-15T07:45:36;32.10;;;14.20;;
20322;SDS011;10319;52.206;20.996;2023-02-15T07:48:01;28.93;;;12.40;;
20322;SDS011;10319;52.206;20.996;2023-02-15T07:50:27;30.90;;;14.07;;
20322;SDS011;10319;52.206;20.996;2023-02-15T07:52:52;28.30;;;12.77;;
20322;SDS011;10319;52.206;20.996;2023-02-15T07:55:17;32.17;;;13.37;;
20322;SDS011;10319;52.206;20.996;2023-02-15T07:57:47;33.10;;;13.40;;
20322;SDS011;10319;52.206;20.996;2023-02-15T08:00:16;31.47;;;13.07;;
20322;SDS011;10319;52.206;20.996;2023-02-15T08:02:42;32.07;;;14.33;;
20322;SDS011;10319;52.206;20.996;2023-02-15T08:05:07;33.47;;;14.23;;
20322;SDS011;10319;52.206;20.996;2023-02-15T08:07:32;29.07;;;13.63;;
20322;SDS011;10319;52.206;20.996;2023-02-15T08:09:58;30.50;;;12.43;;
20322;SDS011;10319;52.206;20.996;2023-02-15T08:12:25;31.17;;;12.67;;
20322;SDS011;10319;52.206;20.996;2023-02-15T08:14:51;29.10;;;12.97;;
20322;SDS011;10319;52.206;20.996;2023-02-15T08:17:16;26.57;;;11.33;;
20322;SDS011;10319;52.206;20.996;2023-02-15T08:19:41;28.00;;;11.73;;
20322;SDS011;10319;52.206;20.996;2023-02-15T08:22:07;27.90;;;11.50;;
20322;SDS011;10319;52.206;20.996;2023-02-15T08:24:36;28.97;;;11.57;;
20322;SDS011;10319;52.206;20.996;2023-02-15T08:27:08;27.20;;;11.30;;
20322;SDS011;10319;52.206;20.996;2023-02-15T08:29:36;24.87;;;10.40;;
20322;SDS011;10319;52.206;20.996;2023-02-15T08:32:06;27.43;;;10.50;;
20322;SDS011;10319;52.206;20.996;2023-02-15T08:34:36;25.87;;;9.67;;
20322;SDS011;10319;52.206;20.996;2023-02-15T08:37:01;26.67;;;9.63;;
20322;SDS011;10319;52.206;20.996;2023-02-15T08:39:33;22.87;;;9.37;;
20322;SDS011;10319;52.206;20.996;2023-02-15T08:41:58;24.07;;;9.37;;
20322;SDS011;10319;52.206;20.996;2023-02-15T08:44:23;24.13;;;10.10;;
20322;SDS011;10319;52.206;20.996;2023-02-15T08:46:49;24.40;;;9.50;;
20322;SDS011;10319;52.206;20.996;2023-02-15T08:49:16;25.80;;;10.37;;
20322;SDS011;10319;52.206;20.996;2023-02-15T08:51:41;24.07;;;9.67;;
20322;SDS011;10319;52.206;20.996;2023-02-15T08:54:08;23.37;;;9.53;;
20322;SDS011;10319;52.206;20.996;2023-02-15T08:56:35;25.07;;;10.10;;
20322;SDS011;10319;52.206;20.996;2023-02-15T08:59:01;23.77;;;9.70;;
20322;SDS011;10319;52.206;20.996;2023-02-15T09:01:28;23.67;;;9.30;;
20322;SDS011;10319;52.206;20.996;2023-02-15T09:03:58;22.00;;;9.07;;
20322;SDS011;10319;52.206;20.996;2023-02-15T09:06:26;23.13;;;9.03;;
20322;SDS011;10319;52.206;20.996;2023-02-15T09:08:51;26.50;;;10.17;;
20322;SDS011;10319;52.206;20.996;2023-02-15T09:11:21;24.03;;;9.80;;
20322;SDS011;10319;52.206;20.996;2023-02-15T09:14:07;24.53;;;9.73;;
20322;SDS011;10319;52.206;20.996;2023-02-15T09:16:34;26.87;;;11.03;;
20322;SDS011;10319;52.206;20.996;2023-02-15T09:19:00;24.03;;;10.03;;
20322;SDS011;10319;52.206;20.996;2023-02-15T09:21:26;26.20;;;10.40;;
20322;SDS011;10319;52.206;20.996;2023-02-15T09:23:55;25.80;;;10.27;;
20322;SDS011;10319;52.206;20.996;2023-02-15T09:26:21;24.03;;;9.47;;
20322;SDS011;10319;52.206;20.996;2023-02-15T09:28:47;22.93;;;9.37;;
20322;SDS011;10319;52.206;20.996;2023-02-15T09:31:16;23.97;;;9.93;;
20322;SDS011;10319;52.206;20.996;2023-02-15T09:33:42;27.37;;;9.97;;
20322;SDS011;10319;52.206;20.996;2023-02-15T09:38:39;24.80;;;9.77;;
20322;SDS011;10319;52.206;20.996;2023-02-15T09:43:52;24.83;;;10.03;;
20322;SDS011;10319;52.206;20.996;2023-02-15T09:46:40;25.57;;;10.50;;
20322;SDS011;10319;52.206;20.996;2023-02-15T09:49:15;25.87;;;10.60;;
20322;SDS011;10319;52.206;20.996;2023-02-15T09:51:54;26.00;;;10.17;;
20322;SDS011;10319;52.206;20.996;2023-02-15T09:54:29;26.13;;;10.57;;
20322;SDS011;10319;52.206;20.996;2023-02-15T09:57:00;27.07;;;10.33;;
20322;SDS011;10319;52.206;20.996;2023-02-15T09:59:53;25.47;;;10.33;;
20322;SDS011;10319;52.206;20.996;2023-02-15T10:09:48;25.83;;;10.80;;
20322;SDS011;10319;52.206;20.996;2023-02-15T10:22:43;27.97;;;11.83;;
20322;SDS011;10319;52.206;20.996;2023-02-15T10:27:47;27.00;;;11.20;;
20322;SDS011;10319;52.206;20.996;2023-02-15T10:33:09;28.00;;;11.73;;
20322;SDS011;10319;52.206;20.996;2023-02-15T10:35:43;25.30;;;10.73;;
20322;SDS011;10319;52.206;20.996;2023-02-15T10:50:55;25.67;;;10.23;;
20322;SDS011;10319;52.206;20.996;2023-02-15T10:55:50;25.90;;;9.67;;
20322;SDS011;10319;52.206;20.996;2023-02-15T11:00:47;25.13;;;10.13;;
20322;SDS011;10319;52.206;20.996;2023-02-15T11:06:03;23.57;;;9.00;;
20322;SDS011;10319;52.206;20.996;2023-02-15T11:08:46;23.13;;;9.50;;
20322;SDS011;10319;52.206;20.996;2023-02-15T11:17:55;25.13;;;10.33;;
20322;SDS011;10319;52.206;20.996;2023-02-15T11:22:50;28.87;;;10.77;;
20322;SDS011;10319;52.206;20.996;2023-02-15T11:25:28;24.20;;;10.57;;
20322;SDS011;10319;52.206;20.996;2023-02-15T11:28:10;24.27;;;10.30;;
20322;SDS011;10319;52.206;20.996;2023-02-15T11:30:54;22.93;;;10.10;;
20322;SDS011;10319;52.206;20.996;2023-02-15T11:33:38;26.73;;;11.60;;
20322;SDS011;10319;52.206;20.996;2023-02-15T11:36:15;26.27;;;11.40;;
20322;SDS011;10319;52.206;20.996;2023-02-15T11:38:45;32.03;;;12.33;;
20322;SDS011;10319;52.206;20.996;2023-02-15T11:41:13;30.03;;;12.70;;
20322;SDS011;10319;52.206;20.996;2023-02-15T11:46:10;27.50;;;11.63;;
20322;SDS011;10319;52.206;20.996;2023-02-15T11:48:46;29.67;;;12.30;;
20322;SDS011;10319;52.206;20.996;2023-02-15T11:51:14;34.70;;;13.43;;
20322;SDS011;10319;52.206;20.996;2023-02-15T11:53:41;30.90;;;12.63;;
20322;SDS011;10319;52.206;20.996;2023-02-15T11:56:15;32.37;;;13.23;;
20322;SDS011;10319;52.206;20.996;2023-02-15T12:01:47;35.13;;;14.07;;
20322;SDS011;10319;52.206;20.996;2023-02-15T12:09:45;34.23;;;14.53;;
20322;SDS011;10319;52.206;20.996;2023-02-15T12:12:26;34.67;;;14.70;;
20322;SDS011;10319;52.206;20.996;2023-02-15T12:14:55;31.37;;;13.47;;
20322;SDS011;10319;52.206;20.996;2023-02-15T12:17:23;34.53;;;14.53;;
20322;SDS011;10319;52.206;20.996;2023-02-15T12:19:52;32.37;;;14.53;;
20322;SDS011;10319;52.206;20.996;2023-02-15T12:22:31;31.47;;;12.97;;
20322;SDS011;10319;52.206;20.996;2023-02-15T12:25:02;34.13;;;14.67;;
20322;SDS011;10319;52.206;20.996;2023-02-15T12:27:33;35.87;;;14.57;;
20322;SDS011;10319;52.206;20.996;2023-02-15T12:30:00;30.80;;;13.77;;
20322;SDS011;10319;52.206;20.996;2023-02-15T12:32:34;33.50;;;14.30;;
20322;SDS011;10319;52.206;20.996;2023-02-15T12:35:13;35.43;;;14.17;;
20322;SDS011;10319;52.206;20.996;2023-02-15T12:37:51;34.67;;;14.57;;
20322;SDS011;10319;52.206;20.996;2023-02-15T12:40:21;34.07;;;14.10;;
20322;SDS011;10319;52.206;20.996;2023-02-15T12:42:47;33.57;;;13.43;;
20322;SDS011;10319;52.206;20.996;2023-02-15T12:45:20;40.23;;;16.33;;
20322;SDS011;10319;52.206;20.996;2023-02-15T12:47:48;35.03;;;15.60;;
20322;SDS011;10319;52.206;20.996;2023-02-15T12:50:34;35.07;;;15.23;;
20322;SDS011;10319;52.206;20.996;2023-02-15T12:59:24;35.23;;;15.40;;
20322;SDS011;10319;52.206;20.996;2023-02-15T13:01:51;36.60;;;15.90;;
20322;SDS011;10319;52.206;20.996;2023-02-15T13:04:25;36.90;;;16.10;;
20322;SDS011;10319;52.206;20.996;2023-02-15T13:06:55;37.53;;;17.07;;
20322;SDS011;10319;52.206;20.996;2023-02-15T13:12:21;38.67;;;16.97;;
20322;SDS011;10319;52.206;20.996;2023-02-15T13:14:50;38.20;;;15.83;;
20322;SDS011;10319;52.206;20.996;2023-02-15T13:17:16;33.27;;;15.50;;
20322;SDS011;10319;52.206;20.996;2023-02-15T13:19:54;34.10;;;15.23;;
20322;SDS011;10319;52.206;20.996;2023-02-15T13:22:31;34.70;;;14.93;;
20322;SDS011;10319;52.206;20.996;2023-02-15T13:24:59;34.93;;;15.93;;
20322;SDS011;10319;52.206;20.996;2023-02-15T13:27:33;37.83;;;17.13;;
20322;SDS011;10319;52.206;20.996;2023-02-15T13:30:00;38.17;;;17.10;;
20322;SDS011;10319;52.206;20.996;2023-02-15T13:34:54;34.27;;;15.90;;
20322;SDS011;10319;52.206;20.996;2023-02-15T13:37:26;37.50;;;16.40;;
20322;SDS011;10319;52.206;20.996;2023-02-15T13:52:54;32.00;;;14.03;;
20322;SDS011;10319;52.206;20.996;2023-02-15T13:55:28;36.70;;;15.23;;
20322;SDS011;10319;52.206;20.996;2023-02-15T14:00:50;37.37;;;15.77;;
20322;SDS011;10319;52.206;20.996;2023-02-15T14:08:13;37.20;;;16.30;;
20322;SDS011;10319;52.206;20.996;2023-02-15T14:13:27;36.90;;;16.37;;
20322;SDS011;10319;52.206;20.996;2023-02-15T14:15:58;39.93;;;17.57;;
20322;SDS011;10319;52.206;20.996;2023-02-15T14:18:35;40.83;;;17.37;;
20322;SDS011;10319;52.206;20.996;2023-02-15T14:21:03;39.17;;;16.77;;
20322;SDS011;10319;52.206;20.996;2023-02-15T14:31:07;38.53;;;16.30;;
20322;SDS011;10319;52.206;20.996;2023-02-15T14:35:59;37.80;;;17.03;;
20322;SDS011;10319;52.206;20.996;2023-02-15T14:40:58;40.90;;;18.87;;
20322;SDS011;10319;52.206;20.996;2023-02-15T14:48:45;45.53;;;19.00;;
20322;SDS011;10319;52.206;20.996;2023-02-15T14:51:24;44.83;;;19.10;;
20322;SDS011;10319;52.206;20.996;2023-02-15T14:53:56;44.93;;;18.77;;
20322;SDS011;10319;52.206;20.996;2023-02-15T14:56:22;40.47;;;18.00;;
20322;SDS011;10319;52.206;20.996;2023-02-15T15:01:32;45.03;;;18.27;;
20322;SDS011;10319;52.206;20.996;2023-02-15T15:04:03;44.93;;;18.87;;
20322;SDS011;10319;52.206;20.996;2023-02-15T15:06:30;44.50;;;18.30;;
20322;SDS011;10319;52.206;20.996;2023-02-15T15:09:10;42.27;;;17.83;;
20322;SDS011;10319;52.206;20.996;2023-02-15T15:11:37;45.03;;;17.97;;
20322;SDS011;10319;52.206;20.996;2023-02-15T15:14:03;44.10;;;18.43;;
20322;SDS011;10319;52.206;20.996;2023-02-15T15:19:00;36.67;;;15.63;;
20322;SDS011;10319;52.206;20.996;2023-02-15T15:24:10;36.57;;;14.97;;
20322;SDS011;10319;52.206;20.996;2023-02-15T15:29:39;41.30;;;16.90;;
20322;SDS011;10319;52.206;20.996;2023-02-15T15:32:05;41.17;;;16.23;;
20322;SDS011;10319;52.206;20.996;2023-02-15T15:37:22;40.83;;;16.67;;
20322;SDS011;10319;52.206;20.996;2023-02-15T15:50:18;34.37;;;13.47;;
20322;SDS011;10319;52.206;20.996;2023-02-15T15:52:45;38.93;;;15.43;;
20322;SDS011;10319;52.206;20.996;2023-02-15T15:55:17;33.90;;;14.43;;
20322;SDS011;10319;52.206;20.996;2023-02-15T15:57:44;35.27;;;14.60;;
20322;SDS011;10319;52.206;20.996;2023-02-15T16:02:55;37.87;;;13.77;;
20322;SDS011;10319;52.206;20.996;2023-02-15T16:05:21;36.07;;;14.17;;
20322;SDS011;10319;52.206;20.996;2023-02-15T16:07:46;37.03;;;14.57;;
20322;SDS011;10319;52.206;20.996;2023-02-15T16:10:22;33.63;;;13.57;;
20322;SDS011;10319;52.206;20.996;2023-02-15T16:12:48;34.37;;;14.33;;
20322;SDS011;10319;52.206;20.996;2023-02-15T16:15:16;34.40;;;14.23;;
20322;SDS011;10319;52.206;20.996;2023-02-15T16:17:43;38.40;;;14.23;;
20322;SDS011;10319;52.206;20.996;2023-02-15T16:22:38;37.07;;;14.53;;
20322;SDS011;10319;52.206;20.996;2023-02-15T16:27:47;34.40;;;13.90;;
20322;SDS011;10319;52.206;20.996;2023-02-15T16:30:24;31.40;;;12.83;;
20322;SDS011;10319;52.206;20.996;2023-02-15T16:32:54;32.53;;;13.57;;
20322;SDS011;10319;52.206;20.996;2023-02-15T16:35:20;37.13;;;15.70;;
20322;SDS011;10319;52.206;20.996;2023-02-15T16:37:46;37.20;;;15.03;;
20322;SDS011;10319;52.206;20.996;2023-02-15T16:42:52;33.97;;;14.60;;
20322;SDS011;10319;52.206;20.996;2023-02-15T16:45:19;34.23;;;15.13;;
20322;SDS011;10319;52.206;20.996;2023-02-15T16:47:48;34.73;;;14.03;;
20322;SDS011;10319;52.206;20.996;2023-02-15T16:50:19;37.47;;;14.93;;
20322;SDS011;10319;52.206;20.996;2023-02-15T16:52:47;35.77;;;13.93;;
20322;SDS011;10319;52.206;20.996;2023-02-15T16:55:20;36.17;;;14.07;;
20322;SDS011;10319;52.206;20.996;2023-02-15T16:57:46;32.87;;;13.33;;
20322;SDS011;10319;52.206;20.996;2023-02-15T17:00:18;31.87;;;12.90;;
20322;SDS011;10319;52.206;20.996;2023-02-15T17:05:33;31.50;;;13.50;;
20322;SDS011;10319;52.206;20.996;2023-02-15T17:10:37;37.87;;;14.70;;
20322;SDS011;10319;52.206;20.996;2023-02-15T17:13:09;33.33;;;14.17;;
20322;SDS011;10319;52.206;20.996;2023-02-15T17:15:35;36.20;;;14.30;;
20322;SDS011;10319;52.206;20.996;2023-02-15T17:18:20;41.90;;;16.43;;
20322;SDS011;10319;52.206;20.996;2023-02-15T17:20:47;39.63;;;17.10;;
20322;SDS011;10319;52.206;20.996;2023-02-15T17:25:47;39.70;;;17.40;;
20322;SDS011;10319;52.206;20.996;2023-02-15T17:28:20;40.63;;;16.90;;
20322;SDS011;10319;52.206;20.996;2023-02-15T17:30:46;40.00;;;16.43;;
20322;SDS011;10319;52.206;20.996;2023-02-15T17:33:20;39.13;;;16.80;;